createdAt,value
2022-11-18T00:01:21.677Z,10.38
2022-11-18T00:03:49.927Z,10.39
2022-11-18T00:06:20.432Z,10.40
2022-11-18T00:08:48.757Z,10.37
2022-11-18T00:11:35.579Z,10.41
2022-11-18T00:14:21.392Z,10.43
2022-11-18T00:17:03.286Z,10.47
2022-11-18T00:19:32.299Z,10.42
2022-11-18T00:24:42.789Z,10.44
2022-11-18T00:27:10.190Z,10.44
2022-11-18T00:29:38.336Z,10.41
2022-11-18T00:32:06.181Z,10.42
2022-11-18T00:34:33.750Z,10.43
2022-11-18T00:37:01.203Z,10.45
2022-11-18T00:39:28.805Z,10.38
2022-11-18T00:42:14.574Z,10.41
2022-11-18T00:44:42.251Z,10.47
2022-11-18T00:47:09.783Z,10.48
2022-11-18T00:49:37.318Z,10.54
2022-11-18T00:52:05.864Z,10.56
2022-11-18T00:54:33.435Z,10.57
2022-11-18T00:57:00.962Z,10.60
2022-11-18T00:59:28.538Z,10.57
2022-11-18T01:01:55.957Z,10.59
2022-11-18T01:07:10.811Z,10.51
2022-11-18T01:09:38.439Z,10.48
2022-11-18T01:12:24.892Z,10.51
2022-11-18T01:14:52.351Z,10.50
2022-11-18T01:17:19.720Z,10.47
2022-11-18T01:19:55.370Z,10.49
2022-11-18T01:22:23.327Z,10.52
2022-11-18T01:24:50.730Z,10.56
2022-11-18T01:27:18.481Z,10.59
2022-11-18T01:29:45.905Z,10.52
2022-11-18T01:32:29.055Z,10.53
2022-11-18T01:34:56.727Z,10.49
2022-11-18T01:37:24.177Z,10.45
2022-11-18T01:39:51.734Z,10.47
2022-11-18T01:42:19.288Z,10.47
2022-11-18T01:45:01.227Z,10.42
2022-11-18T01:47:49.430Z,10.47
2022-11-18T01:50:39.637Z,10.45
2022-11-18T01:53:12.695Z,10.38
2022-11-18T01:55:44.126Z,10.36
2022-11-18T01:58:15.688Z,10.36
2022-11-18T02:00:43.454Z,10.33
2022-11-18T02:03:12.396Z,10.38
2022-11-18T02:05:41.021Z,10.36
2022-11-18T02:08:08.906Z,10.39
2022-11-18T02:10:36.609Z,10.30
2022-11-18T02:13:04.130Z,10.33
2022-11-18T02:16:11.674Z,10.36
2022-11-18T02:18:57.756Z,10.37
2022-11-18T02:22:12.973Z,10.36
2022-11-18T02:25:07.612Z,10.40
2022-11-18T02:27:59.921Z,10.40
2022-11-18T02:30:33.333Z,10.41
2022-11-18T02:33:10.616Z,10.40
2022-11-18T02:35:43.681Z,10.43
2022-11-18T02:38:22.664Z,10.41
2022-11-18T02:40:55.993Z,10.39
2022-11-18T02:43:41.667Z,10.37
2022-11-18T02:46:14.079Z,10.43
2022-11-18T02:48:47.404Z,10.39
2022-11-18T02:51:18.920Z,10.38
2022-11-18T02:53:48.193Z,10.32
2022-11-18T02:56:17.623Z,10.30
2022-11-18T02:59:02.781Z,10.32
2022-11-18T03:01:34.008Z,10.32
2022-11-18T03:04:01.822Z,10.32
2022-11-18T03:06:35.447Z,10.27
2022-11-18T03:09:18.264Z,10.30
2022-11-18T03:12:15.275Z,10.26
2022-11-18T03:15:07.231Z,10.18
2022-11-18T03:17:46.290Z,10.20
2022-11-18T03:20:23.051Z,10.17
2022-11-18T03:22:58.486Z,10.17
2022-11-18T03:25:26.027Z,10.17
2022-11-18T03:28:20.006Z,10.15
2022-11-18T03:30:53.736Z,10.12
2022-11-18T03:33:25.523Z,10.15
2022-11-18T03:38:50.085Z,10.05
2022-11-18T03:41:21.007Z,9.96
2022-11-18T03:43:56.701Z,9.87
2022-11-18T03:46:31.181Z,9.75
2022-11-18T03:48:59.345Z,9.86
2022-11-18T03:54:33.859Z,9.83
2022-11-18T03:57:08.007Z,9.72
2022-11-18T03:59:46.158Z,9.76
2022-11-18T04:02:21.527Z,9.83
2022-11-18T04:04:52.027Z,9.82
2022-11-18T04:07:45.723Z,9.73
2022-11-18T04:10:20.618Z,9.77
2022-11-18T04:12:54.660Z,9.70
2022-11-18T04:15:22.500Z,9.69
2022-11-18T04:17:49.980Z,9.64
2022-11-18T04:20:20.527Z,9.68
2022-11-18T04:22:48.322Z,9.59
2022-11-18T04:25:15.872Z,9.65
2022-11-18T04:27:43.526Z,9.60
2022-11-18T04:30:11.463Z,9.54
2022-11-18T04:32:38.875Z,9.55
2022-11-18T04:35:07.014Z,9.51
2022-11-18T04:37:34.848Z,9.49
2022-11-18T04:40:02.335Z,9.42
2022-11-18T04:42:30.270Z,9.33
2022-11-18T04:44:57.955Z,9.39
2022-11-18T04:47:25.690Z,9.43
2022-11-18T04:49:53.265Z,9.38
2022-11-18T04:52:20.864Z,9.37
2022-11-18T04:54:48.611Z,9.34
2022-11-18T04:57:16.701Z,9.36
2022-11-18T04:59:47.170Z,9.34
2022-11-18T05:02:16.755Z,9.39
2022-11-18T05:04:46.900Z,9.31
2022-11-18T05:07:16.366Z,9.32
2022-11-18T05:09:44.289Z,9.34
2022-11-18T05:12:33.432Z,9.31
2022-11-18T05:15:01.893Z,9.36
2022-11-18T05:17:31.139Z,9.36
2022-11-18T05:19:59.120Z,9.33
2022-11-18T05:22:27.123Z,9.31
2022-11-18T05:24:55.139Z,9.35
2022-11-18T05:27:23.011Z,9.42
2022-11-18T05:29:51.176Z,9.41
2022-11-18T05:35:02.118Z,9.48
2022-11-18T05:37:34.297Z,9.53
2022-11-18T05:40:17.722Z,9.51
2022-11-18T05:43:08.384Z,9.34
2022-11-18T05:45:37.806Z,9.46
2022-11-18T05:48:07.266Z,9.41
2022-11-18T05:50:39.305Z,9.40
2022-11-18T05:53:09.570Z,9.34
2022-11-18T05:56:06.841Z,9.28
2022-11-18T05:58:35.142Z,9.27
2022-11-18T06:01:06.762Z,9.43
2022-11-18T06:03:38.882Z,9.45
2022-11-18T06:06:09.744Z,9.51
2022-11-18T06:08:45.611Z,9.46
2022-11-18T06:11:16.445Z,9.56
2022-11-18T06:13:52.055Z,9.71
2022-11-18T06:16:24.307Z,9.74
2022-11-18T06:18:52.235Z,9.76
2022-11-18T06:21:20.923Z,9.80
2022-11-18T06:23:49.535Z,9.84
2022-11-18T06:27:04.187Z,9.85
2022-11-18T06:29:59.933Z,9.77
2022-11-18T06:32:33.123Z,9.70
2022-11-18T06:35:05.901Z,9.76
2022-11-18T06:37:43.267Z,9.67
2022-11-18T06:40:15.396Z,9.82
2022-11-18T06:43:03.418Z,9.83
2022-11-18T06:45:31.782Z,9.96
2022-11-18T06:48:00.966Z,10.01
2022-11-18T06:50:30.007Z,10.06
2022-11-18T06:53:02.924Z,10.13
2022-11-18T06:55:30.957Z,10.07
2022-11-18T06:57:59.078Z,10.09
2022-11-18T07:00:26.728Z,10.17
2022-11-18T07:02:54.735Z,10.17
2022-11-18T07:05:22.661Z,10.25
2022-11-18T07:07:50.803Z,10.28
2022-11-18T07:10:18.840Z,10.33
2022-11-18T07:12:46.413Z,10.33
2022-11-18T07:15:15.186Z,10.33
2022-11-18T07:17:42.732Z,10.37
2022-11-18T07:20:12.709Z,10.43
2022-11-18T07:22:43.620Z,10.39
2022-11-18T07:25:13.885Z,10.41
2022-11-18T07:27:50.624Z,10.43
2022-11-18T07:30:25.088Z,10.32
2022-11-18T07:32:54.589Z,10.38
2022-11-18T07:35:24.427Z,10.34
2022-11-18T07:37:54.179Z,10.34
2022-11-18T07:40:44.459Z,10.29
2022-11-18T07:43:36.589Z,10.18
2022-11-18T07:46:19.110Z,10.35
2022-11-18T07:48:48.740Z,10.33
2022-11-18T07:51:18.985Z,10.35
2022-11-18T07:53:47.190Z,10.34
2022-11-18T07:56:19.031Z,10.38
2022-11-18T07:58:47.019Z,10.34
2022-11-18T08:01:20.841Z,10.36
2022-11-18T08:03:48.915Z,10.38
2022-11-18T08:06:19.607Z,10.34
2022-11-18T08:08:48.479Z,10.27
2022-11-18T08:14:03.294Z,10.15
2022-11-18T08:16:32.859Z,10.16
2022-11-18T08:19:02.209Z,10.15
2022-11-18T08:21:30.350Z,10.08
2022-11-18T08:23:59.564Z,10.06
2022-11-18T08:26:30.255Z,10.02
2022-11-18T08:29:01.224Z,9.99
2022-11-18T08:31:35.734Z,9.92
2022-11-18T08:34:08.763Z,10.05
2022-11-18T08:36:39.256Z,10.06
2022-11-18T08:39:12.697Z,10.09
2022-11-18T08:41:42.869Z,10.13
2022-11-18T08:44:15.259Z,10.11
2022-11-18T08:46:51.956Z,10.09
2022-11-18T08:49:21.289Z,10.17
2022-11-18T08:51:50.628Z,10.13
2022-11-18T08:54:19.218Z,10.18
2022-11-18T08:56:47.259Z,10.17
2022-11-18T08:59:16.410Z,10.17
2022-11-18T09:01:44.830Z,10.19
2022-11-18T09:04:14.262Z,10.12
2022-11-18T09:06:42.449Z,10.22
2022-11-18T09:09:10.173Z,10.14
2022-11-18T09:11:42.139Z,10.25
2022-11-18T09:17:00.760Z,10.21
2022-11-18T09:19:46.681Z,10.27
2022-11-18T09:22:16.987Z,10.35
2022-11-18T09:24:45.590Z,10.42
2022-11-18T09:27:17.306Z,10.50
2022-11-18T09:29:46.521Z,10.50
2022-11-18T09:32:14.856Z,10.54
2022-11-18T09:34:42.690Z,10.60
2022-11-18T09:37:15.208Z,10.63
2022-11-18T09:39:43.952Z,10.59
2022-11-18T09:42:19.312Z,10.69
2022-11-18T09:45:19.295Z,10.66
2022-11-18T09:47:53.913Z,10.69
2022-11-18T09:56:04.547Z,10.82
2022-11-18T09:58:35.871Z,10.74
2022-11-18T10:01:11.033Z,10.81
2022-11-18T10:03:39.801Z,10.91
2022-11-18T10:06:09.821Z,10.96
2022-11-18T10:08:55.924Z,10.99
2022-11-18T10:15:10.606Z,11.06
2022-11-18T10:17:52.433Z,11.21
2022-11-18T10:20:51.534Z,11.22
2022-11-18T10:23:54.151Z,11.27
2022-11-18T10:26:42.693Z,11.28
2022-11-18T10:29:11.912Z,11.29
2022-11-18T10:31:53.441Z,11.34
2022-11-18T10:34:21.761Z,11.33
2022-11-18T10:37:08.129Z,11.37
2022-11-18T10:39:53.942Z,11.31
2022-11-18T10:42:29.598Z,11.45
2022-11-18T10:45:15.128Z,11.54
2022-11-18T10:47:43.505Z,11.63
2022-11-18T10:50:35.861Z,11.65
2022-11-18T10:53:06.079Z,11.62
2022-11-18T10:55:34.646Z,11.65
2022-11-18T10:58:09.871Z,11.61
2022-11-18T11:00:39.997Z,11.64
2022-11-18T11:03:29.705Z,11.70
2022-11-18T11:06:32.390Z,11.68
2022-11-18T11:09:15.082Z,11.65
2022-11-18T11:12:04.529Z,11.65
2022-11-18T11:14:53.312Z,11.67
2022-11-18T11:17:39.717Z,11.70
2022-11-18T11:20:16.189Z,11.74
2022-11-18T11:22:45.413Z,11.71
2022-11-18T11:28:38.284Z,11.67
2022-11-18T11:31:16.675Z,11.71
2022-11-18T11:36:58.631Z,11.57
2022-11-18T11:39:54.696Z,11.57
2022-11-18T11:42:38.211Z,11.47
2022-11-18T11:45:18.010Z,11.56
2022-11-18T11:48:13.777Z,11.58
2022-11-18T11:51:03.448Z,11.58
2022-11-18T11:54:10.362Z,11.65
2022-11-18T11:57:15.716Z,11.67
2022-11-18T12:00:02.349Z,11.66
2022-11-18T12:02:56.623Z,11.60
2022-11-18T12:05:34.886Z,11.62
2022-11-18T12:08:15.181Z,11.57
2022-11-18T12:10:47.710Z,11.52
2022-11-18T12:13:39.073Z,11.49
2022-11-18T12:16:32.547Z,11.41
2022-11-18T12:19:17.440Z,11.44
2022-11-18T12:21:46.164Z,11.50
2022-11-18T12:24:33.977Z,11.51
2022-11-18T12:27:25.006Z,11.58
2022-11-18T12:30:02.031Z,11.55
2022-11-18T12:32:35.384Z,11.56
2022-11-18T12:35:22.340Z,11.53
2022-11-18T12:37:52.780Z,11.50
2022-11-18T12:40:52.658Z,11.46
2022-11-18T12:43:45.720Z,11.49
2022-11-18T12:46:35.419Z,11.46
2022-11-18T12:49:26.411Z,11.48
2022-11-18T12:52:00.127Z,11.44
2022-11-18T12:54:47.275Z,11.46
2022-11-18T12:57:18.401Z,11.45
2022-11-18T12:59:46.468Z,11.29
2022-11-18T13:02:23.516Z,11.13
2022-11-18T13:05:28.235Z,10.99
2022-11-18T13:08:16.149Z,10.85
2022-11-18T13:11:14.570Z,10.79
2022-11-18T13:13:42.852Z,10.48
2022-11-18T13:16:43.012Z,10.33
2022-11-18T13:19:21.227Z,9.98
2022-11-18T13:22:16.387Z,9.95
2022-11-18T13:24:51.258Z,9.78
2022-11-18T13:27:50.231Z,9.57
2022-11-18T13:30:19.621Z,9.38
2022-11-18T13:32:48.887Z,9.29
2022-11-18T13:35:22.899Z,9.29
2022-11-18T13:38:02.597Z,9.24
2022-11-18T13:40:38.699Z,9.24
2022-11-18T13:43:06.557Z,9.17
2022-11-18T13:45:35.522Z,9.14
2022-11-18T13:48:10.787Z,9.13
2022-11-18T13:50:54.573Z,9.10
2022-11-18T13:53:25.260Z,9.12
2022-11-18T13:55:59.054Z,9.07
2022-11-18T13:58:40.184Z,9.08
2022-11-18T14:01:24.250Z,9.02
2022-11-18T14:03:56.260Z,9.01
2022-11-18T14:06:33.564Z,8.97
2022-11-18T14:09:25.548Z,8.90
2022-11-18T14:12:29.262Z,8.86
2022-11-18T14:15:14.607Z,8.88
2022-11-18T14:17:54.459Z,8.92
2022-11-18T14:20:22.846Z,8.90
2022-11-18T14:22:52.466Z,8.87
2022-11-18T14:25:42.606Z,8.88
2022-11-18T14:28:19.546Z,8.77
2022-11-18T14:31:05.696Z,8.85
2022-11-18T14:33:37.980Z,8.77
2022-11-18T14:36:16.134Z,8.86
2022-11-18T14:39:19.400Z,8.71
2022-11-18T14:41:48.251Z,8.75
2022-11-18T14:44:17.268Z,8.71
2022-11-18T14:46:48.620Z,8.63
2022-11-18T14:52:04.893Z,8.42
2022-11-18T14:54:32.638Z,8.27
2022-11-18T14:57:04.580Z,8.34
2022-11-18T14:59:32.675Z,8.33
2022-11-18T15:02:00.750Z,8.34
2022-11-18T15:04:28.300Z,8.34
2022-11-18T15:06:56.574Z,8.31
2022-11-18T15:09:24.127Z,8.29
2022-11-18T15:11:51.642Z,8.24
2022-11-18T15:14:19.188Z,8.16
2022-11-18T15:16:46.977Z,8.08
2022-11-18T15:19:16.766Z,8.01
2022-11-18T15:21:45.719Z,7.94
2022-11-18T15:24:13.471Z,7.91
2022-11-18T15:26:44.439Z,7.88
2022-11-18T15:29:23.519Z,7.88
2022-11-18T15:31:51.821Z,7.82
2022-11-18T15:34:21.094Z,7.90
2022-11-18T15:36:49.904Z,7.89
2022-11-18T15:39:17.343Z,7.94
2022-11-18T15:41:50.219Z,7.87
2022-11-18T15:44:17.942Z,7.79
2022-11-18T15:46:48.230Z,7.77
2022-11-18T15:49:17.774Z,7.70
2022-11-18T15:51:45.579Z,7.61
2022-11-18T15:54:12.931Z,7.61
2022-11-18T15:56:41.902Z,7.52
2022-11-18T15:59:14.583Z,7.45
2022-11-18T16:01:47.510Z,7.42
2022-11-18T16:04:17.599Z,7.32
2022-11-18T16:06:46.024Z,7.40
2022-11-18T16:09:14.572Z,7.46
2022-11-18T16:12:01.614Z,7.45
2022-11-18T16:14:29.365Z,7.35
2022-11-18T16:16:57.259Z,7.32
2022-11-18T16:19:27.299Z,7.33
2022-11-18T16:21:57.330Z,7.30
2022-11-18T16:24:27.800Z,7.22
2022-11-18T16:26:55.912Z,7.17
2022-11-18T16:29:24.409Z,7.12
2022-11-18T16:31:53.212Z,7.14
2022-11-18T16:34:25.679Z,7.13
2022-11-18T16:36:58.385Z,7.14
2022-11-18T16:39:27.885Z,7.17
2022-11-18T16:42:03.811Z,7.15
2022-11-18T16:44:35.671Z,7.09
2022-11-18T16:47:06.538Z,7.03
2022-11-18T16:49:38.359Z,7.09
2022-11-18T16:52:07.764Z,7.03
2022-11-18T16:54:38.263Z,7.03
2022-11-18T16:57:09.250Z,6.98
2022-11-18T16:59:36.944Z,7.00
2022-11-18T17:02:04.814Z,6.85
2022-11-18T17:04:33.875Z,6.82
2022-11-18T17:07:02.481Z,6.72
2022-11-18T17:09:30.129Z,6.72
2022-11-18T17:11:58.928Z,6.67
2022-11-18T17:14:26.768Z,6.77
2022-11-18T17:16:54.244Z,6.73
2022-11-18T17:19:24.035Z,6.75
2022-11-18T17:21:52.525Z,6.68
2022-11-18T17:24:22.536Z,6.73
2022-11-18T17:26:51.373Z,6.76
2022-11-18T17:29:19.246Z,6.74
2022-11-18T17:31:47.059Z,6.66
2022-11-18T17:34:15.905Z,6.73
2022-11-18T17:36:44.428Z,6.72
2022-11-18T17:39:13.568Z,6.78
2022-11-18T17:41:59.972Z,6.76
2022-11-18T17:44:28.997Z,6.71
2022-11-18T17:46:56.814Z,6.76
2022-11-18T17:49:24.688Z,6.80
2022-11-18T17:51:52.167Z,6.85
2022-11-18T17:54:20.892Z,6.77
2022-11-18T17:56:50.195Z,6.73
2022-11-18T18:02:02.872Z,6.65
2022-11-18T18:04:30.359Z,6.64
2022-11-18T18:06:58.057Z,6.67
2022-11-18T18:09:30.687Z,6.71
2022-11-18T18:12:00.466Z,6.66
2022-11-18T18:14:28.313Z,6.63
2022-11-18T18:16:55.690Z,6.68
2022-11-18T18:19:24.395Z,6.58
2022-11-18T18:21:53.675Z,6.55
2022-11-18T18:24:21.918Z,6.63
2022-11-18T18:26:49.598Z,6.51
2022-11-18T18:29:17.071Z,6.48
2022-11-18T18:31:44.563Z,6.41
2022-11-18T18:34:12.394Z,6.45
2022-11-18T18:36:39.911Z,6.38
2022-11-18T18:39:07.437Z,6.42
2022-11-18T18:41:35.078Z,6.46
2022-11-18T18:44:02.787Z,6.45
2022-11-18T18:46:32.466Z,6.39
2022-11-18T18:49:05.854Z,6.40
2022-11-18T18:51:37.606Z,6.39
2022-11-18T18:54:06.335Z,6.38
2022-11-18T18:56:35.430Z,6.25
2022-11-18T18:59:06.352Z,6.20
2022-11-18T19:01:34.331Z,6.17
2022-11-18T19:04:04.443Z,6.21
2022-11-18T19:09:27.366Z,6.12
2022-11-18T19:12:13.831Z,6.07
2022-11-18T19:14:41.792Z,6.04
2022-11-18T19:17:11.675Z,6.05
2022-11-18T19:20:00.050Z,5.94
2022-11-18T19:22:31.027Z,5.89
2022-11-18T19:24:59.497Z,5.75
2022-11-18T19:27:28.902Z,5.66
2022-11-18T19:29:56.423Z,5.48
2022-11-18T19:32:24.127Z,5.53
2022-11-18T19:34:51.610Z,5.57
2022-11-18T19:37:19.086Z,5.47
2022-11-18T19:39:46.493Z,5.49
2022-11-18T19:42:14.132Z,5.47
2022-11-18T19:44:41.641Z,5.52
2022-11-18T19:47:09.171Z,5.64
2022-11-18T19:50:00.472Z,5.72
2022-11-18T19:52:29.116Z,5.78
2022-11-18T19:54:58.346Z,5.80
2022-11-18T19:57:26.158Z,5.88
2022-11-18T19:59:53.685Z,5.87
2022-11-18T20:02:22.399Z,5.94
2022-11-18T20:05:08.091Z,5.94
2022-11-18T20:07:35.747Z,5.87
2022-11-18T20:10:03.353Z,5.74
2022-11-18T20:12:30.847Z,5.72
2022-11-18T20:14:58.440Z,5.74
2022-11-18T20:17:25.990Z,5.75
2022-11-18T20:20:11.035Z,5.77
2022-11-18T20:22:41.311Z,5.85
2022-11-18T20:25:09.432Z,5.72
2022-11-18T20:27:36.809Z,5.54
2022-11-18T20:30:04.587Z,5.34
2022-11-18T20:32:32.366Z,5.35
2022-11-18T20:34:59.737Z,5.46
2022-11-18T20:37:28.241Z,5.58
2022-11-18T20:39:55.810Z,5.57
2022-11-18T20:42:41.829Z,5.41
2022-11-18T20:45:09.911Z,5.33
2022-11-18T20:47:37.307Z,5.28
2022-11-18T20:52:50.817Z,5.23
2022-11-18T20:55:18.327Z,5.21
2022-11-18T20:57:46.079Z,5.17
2022-11-18T21:00:13.898Z,5.12
2022-11-18T21:02:41.407Z,5.06
2022-11-18T21:05:09.019Z,5.17
2022-11-18T21:10:36.478Z,5.14
2022-11-18T21:13:22.399Z,5.08
2022-11-18T21:15:50.171Z,5.06
2022-11-18T21:18:29.063Z,5.00
2022-11-18T21:21:19.023Z,4.98
2022-11-18T21:23:46.559Z,5.05
2022-11-18T21:26:13.978Z,4.95
2022-11-18T21:28:41.535Z,4.93
2022-11-18T21:31:09.820Z,4.80
2022-11-18T21:33:37.277Z,4.78
2022-11-18T21:36:05.090Z,4.68
2022-11-18T21:38:32.667Z,4.72
2022-11-18T21:41:07.975Z,4.80
2022-11-18T21:44:03.808Z,4.86
2022-11-18T21:46:25.088Z,4.81
2022-11-18T21:48:58.609Z,4.85
2022-11-18T21:51:28.626Z,4.87
2022-11-18T21:53:56.049Z,4.85
2022-11-18T21:56:25.455Z,4.87
2022-11-18T21:58:53.212Z,4.90
2022-11-18T22:01:26.108Z,5.01
2022-11-18T22:03:56.021Z,4.97
2022-11-18T22:06:25.714Z,4.98
2022-11-18T22:08:53.732Z,5.05
2022-11-18T22:11:22.718Z,5.04
2022-11-18T22:13:52.160Z,4.99
2022-11-18T22:16:22.638Z,4.93
2022-11-18T22:18:57.256Z,4.88
2022-11-18T22:21:26.721Z,4.89
2022-11-18T22:24:16.896Z,4.91
2022-11-18T22:26:44.394Z,4.88
2022-11-18T22:29:11.807Z,4.89
2022-11-18T22:31:39.277Z,4.84
2022-11-18T22:34:06.642Z,4.92
2022-11-18T22:36:34.267Z,4.81
2022-11-18T22:39:01.823Z,4.84
2022-11-18T22:41:48.123Z,4.80
2022-11-18T22:44:16.917Z,4.83
2022-11-18T22:46:45.841Z,4.86
2022-11-18T22:49:14.230Z,4.79
2022-11-18T22:51:41.646Z,4.82
2022-11-18T22:56:58.324Z,4.75
2022-11-18T22:59:25.969Z,4.77
2022-11-18T23:01:53.921Z,4.83
2022-11-18T23:04:21.633Z,4.77
2022-11-18T23:06:50.109Z,4.82
2022-11-18T23:09:17.862Z,4.77
2022-11-18T23:12:04.043Z,4.76
2022-11-18T23:14:31.847Z,4.80
2022-11-18T23:16:59.888Z,4.75
2022-11-18T23:19:27.510Z,4.74
2022-11-18T23:21:54.928Z,4.74
2022-11-18T23:24:22.613Z,4.79
2022-11-18T23:26:50.334Z,4.79
2022-11-18T23:29:18.419Z,4.75
2022-11-18T23:31:45.954Z,4.78
2022-11-18T23:34:15.664Z,4.71
2022-11-18T23:36:43.882Z,4.67
2022-11-18T23:39:11.982Z,4.62
2022-11-18T23:41:40.040Z,4.71
2022-11-18T23:44:07.563Z,4.71
2022-11-18T23:46:35.488Z,4.72
2022-11-18T23:49:03.347Z,4.66
2022-11-18T23:51:30.799Z,4.57
2022-11-18T23:54:06.826Z,4.63
2022-11-18T23:56:38.077Z,4.63
2022-11-18T23:59:05.930Z,4.38
